sensor_id;sensor_type;location;lat;lon;timestamp;temperature;humidity
78733;DHT22;68056;52.530;5.454;2024-02-28T00:01:51;3.70;68.20
78733;DHT22;68056;52.530;5.454;2024-02-28T00:04:17;3.70;68.30
78733;DHT22;68056;52.530;5.454;2024-02-28T00:06:43;3.60;68.40
78733;DHT22;68056;52.530;5.454;2024-02-28T00:09:09;3.60;68.40
78733;DHT22;68056;52.530;5.454;2024-02-28T00:11:35;3.60;68.50
78733;DHT22;68056;52.530;5.454;2024-02-28T00:14:00;3.60;68.60
78733;DHT22;68056;52.530;5.454;2024-02-28T00:16:27;3.60;68.60
78733;DHT22;68056;52.530;5.454;2024-02-28T00:18:53;3.50;68.70
78733;DHT22;68056;52.530;5.454;2024-02-28T00:21:19;3.50;68.70
78733;DHT22;68056;52.530;5.454;2024-02-28T00:23:44;3.50;68.80
78733;DHT22;68056;52.530;5.454;2024-02-28T00:26:12;3.50;68.80
78733;DHT22;68056;52.530;5.454;2024-02-28T00:28:37;3.50;68.90
78733;DHT22;68056;52.530;5.454;2024-02-28T00:31:03;3.50;68.90
78733;DHT22;68056;52.530;5.454;2024-02-28T00:33:29;3.40;68.90
78733;DHT22;68056;52.530;5.454;2024-02-28T00:35:54;3.30;69.00
78733;DHT22;68056;52.530;5.454;2024-02-28T00:38:20;3.30;69.00
78733;DHT22;68056;52.530;5.454;2024-02-28T00:40:46;3.30;69.10
78733;DHT22;68056;52.530;5.454;2024-02-28T00:43:11;3.30;69.20
78733;DHT22;68056;52.530;5.454;2024-02-28T00:45:38;3.20;69.20
78733;DHT22;68056;52.530;5.454;2024-02-28T00:48:03;3.10;69.30
78733;DHT22;68056;52.530;5.454;2024-02-28T00:50:29;3.10;69.30
78733;DHT22;68056;52.530;5.454;2024-02-28T00:52:55;3.10;69.30
78733;DHT22;68056;52.530;5.454;2024-02-28T00:55:20;3.10;69.40
78733;DHT22;68056;52.530;5.454;2024-02-28T00:57:46;3.00;69.50
78733;DHT22;68056;52.530;5.454;2024-02-28T01:00:12;3.00;69.60
78733;DHT22;68056;52.530;5.454;2024-02-28T01:02:37;3.00;69.60
78733;DHT22;68056;52.530;5.454;2024-02-28T01:05:03;2.90;69.70
78733;DHT22;68056;52.530;5.454;2024-02-28T01:07:29;2.90;69.70
78733;DHT22;68056;52.530;5.454;2024-02-28T01:09:54;2.90;69.70
78733;DHT22;68056;52.530;5.454;2024-02-28T01:12:20;2.90;69.80
78733;DHT22;68056;52.530;5.454;2024-02-28T01:14:46;2.80;69.90
78733;DHT22;68056;52.530;5.454;2024-02-28T01:17:11;2.80;69.90
78733;DHT22;68056;52.530;5.454;2024-02-28T01:19:37;2.80;69.90
78733;DHT22;68056;52.530;5.454;2024-02-28T01:22:02;2.80;69.90
78733;DHT22;68056;52.530;5.454;2024-02-28T01:24:28;2.80;69.90
78733;DHT22;68056;52.530;5.454;2024-02-28T01:26:53;2.80;69.90
78733;DHT22;68056;52.530;5.454;2024-02-28T01:29:19;2.70;69.90
78733;DHT22;68056;52.530;5.454;2024-02-28T01:31:44;2.70;69.90
78733;DHT22;68056;52.530;5.454;2024-02-28T01:34:10;2.80;70.00
78733;DHT22;68056;52.530;5.454;2024-02-28T01:36:35;2.80;69.90
78733;DHT22;68056;52.530;5.454;2024-02-28T01:39:01;2.80;69.90
78733;DHT22;68056;52.530;5.454;2024-02-28T01:41:27;2.80;70.00
78733;DHT22;68056;52.530;5.454;2024-02-28T01:43:52;2.80;69.90
78733;DHT22;68056;52.530;5.454;2024-02-28T01:46:29;2.80;70.00
78733;DHT22;68056;52.530;5.454;2024-02-28T01:48:55;2.80;69.90
78733;DHT22;68056;52.530;5.454;2024-02-28T01:51:25;2.80;70.00
78733;DHT22;68056;52.530;5.454;2024-02-28T01:53:53;2.80;69.90
78733;DHT22;68056;52.530;5.454;2024-02-28T01:56:19;2.80;69.90
78733;DHT22;68056;52.530;5.454;2024-02-28T01:58:46;2.80;70.00
78733;DHT22;68056;52.530;5.454;2024-02-28T02:01:14;2.80;70.00
78733;DHT22;68056;52.530;5.454;2024-02-28T02:03:40;2.90;70.00
78733;DHT22;68056;52.530;5.454;2024-02-28T02:06:05;2.90;70.00
78733;DHT22;68056;52.530;5.454;2024-02-28T02:08:33;2.90;70.00
78733;DHT22;68056;52.530;5.454;2024-02-28T02:10:59;2.90;69.90
78733;DHT22;68056;52.530;5.454;2024-02-28T02:13:25;2.90;69.80
78733;DHT22;68056;52.530;5.454;2024-02-28T02:15:50;2.90;69.90
78733;DHT22;68056;52.530;5.454;2024-02-28T02:18:16;3.00;69.90
78733;DHT22;68056;52.530;5.454;2024-02-28T02:20:44;3.00;69.90
78733;DHT22;68056;52.530;5.454;2024-02-28T02:23:11;3.00;69.80
78733;DHT22;68056;52.530;5.454;2024-02-28T02:25:48;3.00;69.80
78733;DHT22;68056;52.530;5.454;2024-02-28T02:28:14;3.00;69.80
78733;DHT22;68056;52.530;5.454;2024-02-28T02:30:40;3.10;69.90
78733;DHT22;68056;52.530;5.454;2024-02-28T02:33:07;3.10;69.90
78733;DHT22;68056;52.530;5.454;2024-02-28T02:35:35;3.10;69.90
78733;DHT22;68056;52.530;5.454;2024-02-28T02:38:01;3.10;69.90
78733;DHT22;68056;52.530;5.454;2024-02-28T02:40:27;3.10;69.90
78733;DHT22;68056;52.530;5.454;2024-02-28T02:42:53;3.10;69.90
78733;DHT22;68056;52.530;5.454;2024-02-28T02:45:18;3.10;69.90
78733;DHT22;68056;52.530;5.454;2024-02-28T02:47:44;3.10;70.00
78733;DHT22;68056;52.530;5.454;2024-02-28T02:50:10;3.10;70.10
78733;DHT22;68056;52.530;5.454;2024-02-28T02:52:36;3.10;70.10
78733;DHT22;68056;52.530;5.454;2024-02-28T02:55:02;3.20;70.10
78733;DHT22;68056;52.530;5.454;2024-02-28T02:57:27;3.20;70.10
78733;DHT22;68056;52.530;5.454;2024-02-28T02:59:53;3.30;70.10
78733;DHT22;68056;52.530;5.454;2024-02-28T03:02:18;3.30;70.10
78733;DHT22;68056;52.530;5.454;2024-02-28T03:04:44;3.30;70.20
78733;DHT22;68056;52.530;5.454;2024-02-28T03:07:09;3.30;70.20
78733;DHT22;68056;52.530;5.454;2024-02-28T03:09:35;3.30;70.20
78733;DHT22;68056;52.530;5.454;2024-02-28T03:12:01;3.30;70.30
78733;DHT22;68056;52.530;5.454;2024-02-28T03:14:26;3.30;70.30
78733;DHT22;68056;52.530;5.454;2024-02-28T03:16:53;3.30;70.30
78733;DHT22;68056;52.530;5.454;2024-02-28T03:19:19;3.30;70.40
78733;DHT22;68056;52.530;5.454;2024-02-28T03:21:45;3.30;70.40
78733;DHT22;68056;52.530;5.454;2024-02-28T03:24:10;3.30;70.40
78733;DHT22;68056;52.530;5.454;2024-02-28T03:26:36;3.30;70.30
78733;DHT22;68056;52.530;5.454;2024-02-28T03:29:02;3.30;70.30
78733;DHT22;68056;52.530;5.454;2024-02-28T03:31:28;3.40;70.30
78733;DHT22;68056;52.530;5.454;2024-02-28T03:33:53;3.50;70.30
78733;DHT22;68056;52.530;5.454;2024-02-28T03:36:19;3.50;70.40
78733;DHT22;68056;52.530;5.454;2024-02-28T03:38:45;3.50;70.40
78733;DHT22;68056;52.530;5.454;2024-02-28T03:41:10;3.50;70.30
78733;DHT22;68056;52.530;5.454;2024-02-28T03:43:36;3.50;70.30
78733;DHT22;68056;52.530;5.454;2024-02-28T03:46:02;3.50;70.30
78733;DHT22;68056;52.530;5.454;2024-02-28T03:48:27;3.60;70.30
78733;DHT22;68056;52.530;5.454;2024-02-28T03:50:53;3.60;70.30
78733;DHT22;68056;52.530;5.454;2024-02-28T03:53:19;3.60;70.40
78733;DHT22;68056;52.530;5.454;2024-02-28T03:55:44;3.70;70.30
78733;DHT22;68056;52.530;5.454;2024-02-28T03:58:10;3.70;70.30
78733;DHT22;68056;52.530;5.454;2024-02-28T04:00:36;3.70;70.30
78733;DHT22;68056;52.530;5.454;2024-02-28T04:03:03;3.70;70.30
78733;DHT22;68056;52.530;5.454;2024-02-28T04:05:29;3.80;70.40
78733;DHT22;68056;52.530;5.454;2024-02-28T04:07:55;3.80;70.40
78733;DHT22;68056;52.530;5.454;2024-02-28T04:10:20;3.80;70.40
78733;DHT22;68056;52.530;5.454;2024-02-28T04:12:46;3.90;70.40
78733;DHT22;68056;52.530;5.454;2024-02-28T04:15:12;3.90;70.40
78733;DHT22;68056;52.530;5.454;2024-02-28T04:17:39;3.90;70.50
78733;DHT22;68056;52.530;5.454;2024-02-28T04:20:11;3.90;70.50
78733;DHT22;68056;52.530;5.454;2024-02-28T04:22:37;3.90;70.50
78733;DHT22;68056;52.530;5.454;2024-02-28T04:25:07;4.00;70.40
78733;DHT22;68056;52.530;5.454;2024-02-28T04:27:33;4.00;70.40
78733;DHT22;68056;52.530;5.454;2024-02-28T04:29:59;4.00;70.40
78733;DHT22;68056;52.530;5.454;2024-02-28T04:32:25;4.10;70.40
78733;DHT22;68056;52.530;5.454;2024-02-28T04:34:50;4.10;70.40
78733;DHT22;68056;52.530;5.454;2024-02-28T04:37:16;4.10;70.40
78733;DHT22;68056;52.530;5.454;2024-02-28T04:39:41;4.10;70.50
78733;DHT22;68056;52.530;5.454;2024-02-28T04:42:07;4.10;70.50
78733;DHT22;68056;52.530;5.454;2024-02-28T04:44:33;4.20;70.50
78733;DHT22;68056;52.530;5.454;2024-02-28T04:46:58;4.20;70.50
78733;DHT22;68056;52.530;5.454;2024-02-28T04:49:24;4.20;70.50
78733;DHT22;68056;52.530;5.454;2024-02-28T04:51:50;4.30;70.50
78733;DHT22;68056;52.530;5.454;2024-02-28T04:54:16;4.30;70.50
78733;DHT22;68056;52.530;5.454;2024-02-28T04:56:42;4.30;70.50
78733;DHT22;68056;52.530;5.454;2024-02-28T04:59:11;4.30;70.50
78733;DHT22;68056;52.530;5.454;2024-02-28T05:01:38;4.40;70.50
78733;DHT22;68056;52.530;5.454;2024-02-28T05:04:06;4.40;70.50
78733;DHT22;68056;52.530;5.454;2024-02-28T05:06:32;4.40;70.60
78733;DHT22;68056;52.530;5.454;2024-02-28T05:08:57;4.40;70.60
78733;DHT22;68056;52.530;5.454;2024-02-28T05:11:23;4.50;70.60
78733;DHT22;68056;52.530;5.454;2024-02-28T05:13:48;4.50;70.70
78733;DHT22;68056;52.530;5.454;2024-02-28T05:16:15;4.50;70.60
78733;DHT22;68056;52.530;5.454;2024-02-28T05:18:41;4.50;70.70
78733;DHT22;68056;52.530;5.454;2024-02-28T05:21:07;4.50;70.70
78733;DHT22;68056;52.530;5.454;2024-02-28T05:23:32;4.50;70.80
78733;DHT22;68056;52.530;5.454;2024-02-28T05:25:59;4.50;70.80
78733;DHT22;68056;52.530;5.454;2024-02-28T05:28:29;4.50;70.80
78733;DHT22;68056;52.530;5.454;2024-02-28T05:30:56;4.50;70.90
78733;DHT22;68056;52.530;5.454;2024-02-28T05:33:21;4.60;70.90
78733;DHT22;68056;52.530;5.454;2024-02-28T05:35:47;4.60;70.90
78733;DHT22;68056;52.530;5.454;2024-02-28T05:38:13;4.50;71.00
78733;DHT22;68056;52.530;5.454;2024-02-28T05:40:38;4.60;71.00
78733;DHT22;68056;52.530;5.454;2024-02-28T05:43:04;4.60;71.00
78733;DHT22;68056;52.530;5.454;2024-02-28T05:45:30;4.70;71.10
78733;DHT22;68056;52.530;5.454;2024-02-28T05:47:55;4.70;71.10
78733;DHT22;68056;52.530;5.454;2024-02-28T05:50:21;4.70;71.00
78733;DHT22;68056;52.530;5.454;2024-02-28T05:52:46;4.70;71.10
78733;DHT22;68056;52.530;5.454;2024-02-28T05:55:12;4.70;71.00
78733;DHT22;68056;52.530;5.454;2024-02-28T05:57:38;4.70;71.10
78733;DHT22;68056;52.530;5.454;2024-02-28T06:00:04;4.70;71.10
78733;DHT22;68056;52.530;5.454;2024-02-28T06:02:37;4.70;71.20
78733;DHT22;68056;52.530;5.454;2024-02-28T06:05:03;4.70;71.20
78733;DHT22;68056;52.530;5.454;2024-02-28T06:07:30;4.70;71.20
78733;DHT22;68056;52.530;5.454;2024-02-28T06:09:55;4.80;71.20
78733;DHT22;68056;52.530;5.454;2024-02-28T06:12:21;4.80;71.30
78733;DHT22;68056;52.530;5.454;2024-02-28T06:14:47;4.80;71.30
78733;DHT22;68056;52.530;5.454;2024-02-28T06:17:13;4.90;71.30
78733;DHT22;68056;52.530;5.454;2024-02-28T06:19:38;4.90;71.30
78733;DHT22;68056;52.530;5.454;2024-02-28T06:22:04;4.90;71.30
78733;DHT22;68056;52.530;5.454;2024-02-28T06:24:29;5.00;71.40
78733;DHT22;68056;52.530;5.454;2024-02-28T06:26:55;5.00;71.40
78733;DHT22;68056;52.530;5.454;2024-02-28T06:29:21;5.00;71.40
78733;DHT22;68056;52.530;5.454;2024-02-28T06:31:51;5.00;71.30
78733;DHT22;68056;52.530;5.454;2024-02-28T06:34:17;5.00;71.30
78733;DHT22;68056;52.530;5.454;2024-02-28T06:36:43;5.00;71.30
78733;DHT22;68056;52.530;5.454;2024-02-28T06:39:08;5.10;71.30
78733;DHT22;68056;52.530;5.454;2024-02-28T06:41:34;5.10;71.30
78733;DHT22;68056;52.530;5.454;2024-02-28T06:43:59;5.10;71.40
78733;DHT22;68056;52.530;5.454;2024-02-28T06:46:25;5.10;71.40
78733;DHT22;68056;52.530;5.454;2024-02-28T06:48:50;5.10;71.40
78733;DHT22;68056;52.530;5.454;2024-02-28T06:51:16;5.20;71.40
78733;DHT22;68056;52.530;5.454;2024-02-28T06:53:43;5.20;71.50
78733;DHT22;68056;52.530;5.454;2024-02-28T06:56:08;5.20;71.40
78733;DHT22;68056;52.530;5.454;2024-02-28T06:58:34;5.30;71.50
78733;DHT22;68056;52.530;5.454;2024-02-28T07:00:59;5.30;71.50
78733;DHT22;68056;52.530;5.454;2024-02-28T07:03:25;5.30;71.50
78733;DHT22;68056;52.530;5.454;2024-02-28T07:05:51;5.30;71.50
78733;DHT22;68056;52.530;5.454;2024-02-28T07:08:19;5.30;71.60
78733;DHT22;68056;52.530;5.454;2024-02-28T07:10:44;5.30;71.60
78733;DHT22;68056;52.530;5.454;2024-02-28T07:13:13;5.30;71.60
78733;DHT22;68056;52.530;5.454;2024-02-28T07:15:38;5.30;71.60
78733;DHT22;68056;52.530;5.454;2024-02-28T07:18:05;5.30;71.60
78733;DHT22;68056;52.530;5.454;2024-02-28T07:20:31;5.30;71.60
78733;DHT22;68056;52.530;5.454;2024-02-28T07:22:56;5.30;71.60
78733;DHT22;68056;52.530;5.454;2024-02-28T07:25:22;5.30;71.70
78733;DHT22;68056;52.530;5.454;2024-02-28T07:27:47;5.40;71.70
78733;DHT22;68056;52.530;5.454;2024-02-28T07:30:13;5.40;71.60
78733;DHT22;68056;52.530;5.454;2024-02-28T07:32:39;5.30;71.70
78733;DHT22;68056;52.530;5.454;2024-02-28T07:35:04;5.30;71.90
78733;DHT22;68056;52.530;5.454;2024-02-28T07:37:30;5.30;71.80
78733;DHT22;68056;52.530;5.454;2024-02-28T07:39:56;5.30;71.80
78733;DHT22;68056;52.530;5.454;2024-02-28T07:42:21;5.30;71.90
78733;DHT22;68056;52.530;5.454;2024-02-28T07:44:47;5.30;71.90
78733;DHT22;68056;52.530;5.454;2024-02-28T07:47:13;5.40;72.00
78733;DHT22;68056;52.530;5.454;2024-02-28T07:49:40;5.30;72.10
78733;DHT22;68056;52.530;5.454;2024-02-28T07:52:05;5.30;72.10
78733;DHT22;68056;52.530;5.454;2024-02-28T07:54:31;5.30;72.10
78733;DHT22;68056;52.530;5.454;2024-02-28T07:56:56;5.30;72.20
78733;DHT22;68056;52.530;5.454;2024-02-28T07:59:22;5.40;72.20
78733;DHT22;68056;52.530;5.454;2024-02-28T08:01:48;5.40;72.30
78733;DHT22;68056;52.530;5.454;2024-02-28T08:04:14;5.40;72.20
78733;DHT22;68056;52.530;5.454;2024-02-28T08:06:40;5.40;72.20
78733;DHT22;68056;52.530;5.454;2024-02-28T08:09:06;5.50;72.20
78733;DHT22;68056;52.530;5.454;2024-02-28T08:11:32;5.50;72.20
78733;DHT22;68056;52.530;5.454;2024-02-28T08:13:58;5.50;72.30
78733;DHT22;68056;52.530;5.454;2024-02-28T08:16:23;5.40;72.40
78733;DHT22;68056;52.530;5.454;2024-02-28T08:18:49;5.40;72.50
78733;DHT22;68056;52.530;5.454;2024-02-28T08:21:15;5.40;72.50
78733;DHT22;68056;52.530;5.454;2024-02-28T08:23:40;5.50;72.60
78733;DHT22;68056;52.530;5.454;2024-02-28T08:26:06;5.50;72.60
78733;DHT22;68056;52.530;5.454;2024-02-28T08:28:31;5.50;72.60
78733;DHT22;68056;52.530;5.454;2024-02-28T08:30:58;5.50;72.60
78733;DHT22;68056;52.530;5.454;2024-02-28T08:33:24;5.50;72.70
78733;DHT22;68056;52.530;5.454;2024-02-28T08:35:49;5.50;72.70
78733;DHT22;68056;52.530;5.454;2024-02-28T08:38:16;5.60;72.70
78733;DHT22;68056;52.530;5.454;2024-02-28T08:40:42;5.60;72.70
78733;DHT22;68056;52.530;5.454;2024-02-28T08:43:08;5.60;72.70
78733;DHT22;68056;52.530;5.454;2024-02-28T08:45:33;5.60;72.60
78733;DHT22;68056;52.530;5.454;2024-02-28T08:47:59;5.70;72.70
78733;DHT22;68056;52.530;5.454;2024-02-28T08:50:27;5.70;72.80
78733;DHT22;68056;52.530;5.454;2024-02-28T08:52:52;5.70;72.80
78733;DHT22;68056;52.530;5.454;2024-02-28T08:55:18;5.70;72.80
78733;DHT22;68056;52.530;5.454;2024-02-28T08:57:45;5.70;72.80
78733;DHT22;68056;52.530;5.454;2024-02-28T09:00:11;5.80;72.80
78733;DHT22;68056;52.530;5.454;2024-02-28T09:02:37;5.80;72.90
78733;DHT22;68056;52.530;5.454;2024-02-28T09:05:04;5.80;72.90
78733;DHT22;68056;52.530;5.454;2024-02-28T09:07:29;5.80;72.90
78733;DHT22;68056;52.530;5.454;2024-02-28T09:09:55;5.90;72.90
78733;DHT22;68056;52.530;5.454;2024-02-28T09:12:21;5.90;72.90
78733;DHT22;68056;52.530;5.454;2024-02-28T09:14:46;5.90;73.00
78733;DHT22;68056;52.530;5.454;2024-02-28T09:17:13;5.90;73.00
78733;DHT22;68056;52.530;5.454;2024-02-28T09:19:38;6.00;73.10
78733;DHT22;68056;52.530;5.454;2024-02-28T09:22:04;6.10;73.10
78733;DHT22;68056;52.530;5.454;2024-02-28T09:24:29;6.20;73.10
78733;DHT22;68056;52.530;5.454;2024-02-28T09:26:55;6.30;73.00
78733;DHT22;68056;52.530;5.454;2024-02-28T09:29:20;6.40;73.00
78733;DHT22;68056;52.530;5.454;2024-02-28T09:31:46;6.50;72.90
78733;DHT22;68056;52.530;5.454;2024-02-28T09:34:11;6.60;72.70
78733;DHT22;68056;52.530;5.454;2024-02-28T09:36:44;6.60;72.70
78733;DHT22;68056;52.530;5.454;2024-02-28T09:39:12;6.60;72.60
78733;DHT22;68056;52.530;5.454;2024-02-28T09:41:38;6.70;72.60
78733;DHT22;68056;52.530;5.454;2024-02-28T09:44:06;6.70;72.70
78733;DHT22;68056;52.530;5.454;2024-02-28T09:46:33;6.80;72.70
78733;DHT22;68056;52.530;5.454;2024-02-28T09:49:02;6.80;72.80
78733;DHT22;68056;52.530;5.454;2024-02-28T09:51:28;6.80;72.80
78733;DHT22;68056;52.530;5.454;2024-02-28T09:53:55;6.90;72.90
78733;DHT22;68056;52.530;5.454;2024-02-28T09:56:23;6.90;72.80
78733;DHT22;68056;52.530;5.454;2024-02-28T09:58:49;7.00;72.80
78733;DHT22;68056;52.530;5.454;2024-02-28T10:01:15;7.00;72.80
78733;DHT22;68056;52.530;5.454;2024-02-28T10:03:43;7.00;72.90
78733;DHT22;68056;52.530;5.454;2024-02-28T10:06:09;7.10;73.00
78733;DHT22;68056;52.530;5.454;2024-02-28T10:08:35;7.20;73.00
78733;DHT22;68056;52.530;5.454;2024-02-28T10:11:02;7.50;72.70
78733;DHT22;68056;52.530;5.454;2024-02-28T10:13:28;7.60;72.50
78733;DHT22;68056;52.530;5.454;2024-02-28T10:15:54;7.60;72.40
78733;DHT22;68056;52.530;5.454;2024-02-28T10:18:20;7.60;72.40
78733;DHT22;68056;52.530;5.454;2024-02-28T10:20:45;7.60;72.50
78733;DHT22;68056;52.530;5.454;2024-02-28T10:23:11;7.60;72.50
78733;DHT22;68056;52.530;5.454;2024-02-28T10:28:10;7.80;72.60
78733;DHT22;68056;52.530;5.454;2024-02-28T10:30:41;7.80;72.50
78733;DHT22;68056;52.530;5.454;2024-02-28T10:33:12;7.80;72.50
78733;DHT22;68056;52.530;5.454;2024-02-28T10:35:40;8.00;72.50
78733;DHT22;68056;52.530;5.454;2024-02-28T10:38:06;8.00;72.50
78733;DHT22;68056;52.530;5.454;2024-02-28T10:40:31;8.00;72.40
78733;DHT22;68056;52.530;5.454;2024-02-28T10:42:57;8.00;72.50
78733;DHT22;68056;52.530;5.454;2024-02-28T10:45:25;8.00;72.50
78733;DHT22;68056;52.530;5.454;2024-02-28T10:47:54;8.10;72.60
78733;DHT22;68056;52.530;5.454;2024-02-28T10:50:20;8.30;72.60
78733;DHT22;68056;52.530;5.454;2024-02-28T10:52:46;8.40;72.30
78733;DHT22;68056;52.530;5.454;2024-02-28T10:55:21;8.40;72.30
78733;DHT22;68056;52.530;5.454;2024-02-28T10:57:57;8.40;72.30
78733;DHT22;68056;52.530;5.454;2024-02-28T11:00:24;8.40;72.30
78733;DHT22;68056;52.530;5.454;2024-02-28T11:02:50;8.40;72.30
78733;DHT22;68056;52.530;5.454;2024-02-28T11:05:16;8.40;72.40
78733;DHT22;68056;52.530;5.454;2024-02-28T11:07:44;8.40;72.50
78733;DHT22;68056;52.530;5.454;2024-02-28T11:10:10;8.40;72.50
78733;DHT22;68056;52.530;5.454;2024-02-28T11:12:37;8.50;72.60
78733;DHT22;68056;52.530;5.454;2024-02-28T11:15:05;8.50;72.60
78733;DHT22;68056;52.530;5.454;2024-02-28T11:17:34;8.60;72.50
78733;DHT22;68056;52.530;5.454;2024-02-28T11:20:11;8.60;72.30
78733;DHT22;68056;52.530;5.454;2024-02-28T11:22:37;8.80;72.30
78733;DHT22;68056;52.530;5.454;2024-02-28T11:25:03;9.00;72.20
78733;DHT22;68056;52.530;5.454;2024-02-28T11:27:31;9.10;72.00
78733;DHT22;68056;52.530;5.454;2024-02-28T11:29:56;9.20;71.80
78733;DHT22;68056;52.530;5.454;2024-02-28T11:32:24;9.40;71.60
78733;DHT22;68056;52.530;5.454;2024-02-28T11:34:50;9.40;71.50
78733;DHT22;68056;52.530;5.454;2024-02-28T11:37:18;9.50;71.30
78733;DHT22;68056;52.530;5.454;2024-02-28T11:39:47;9.60;71.20
78733;DHT22;68056;52.530;5.454;2024-02-28T11:42:15;9.70;71.10
78733;DHT22;68056;52.530;5.454;2024-02-28T11:44:42;9.80;70.90
78733;DHT22;68056;52.530;5.454;2024-02-28T11:47:11;9.80;70.80
78733;DHT22;68056;52.530;5.454;2024-02-28T11:49:37;9.80;70.80
78733;DHT22;68056;52.530;5.454;2024-02-28T11:52:04;9.80;70.90
78733;DHT22;68056;52.530;5.454;2024-02-28T11:54:30;9.70;71.10
78733;DHT22;68056;52.530;5.454;2024-02-28T11:56:55;9.70;71.20
78733;DHT22;68056;52.530;5.454;2024-02-28T11:59:21;9.60;71.20
78733;DHT22;68056;52.530;5.454;2024-02-28T12:01:46;9.70;71.20
78733;DHT22;68056;52.530;5.454;2024-02-28T12:04:12;9.70;71.30
78733;DHT22;68056;52.530;5.454;2024-02-28T12:06:39;9.90;71.30
78733;DHT22;68056;52.530;5.454;2024-02-28T12:09:11;10.00;71.00
78733;DHT22;68056;52.530;5.454;2024-02-28T12:11:37;10.20;70.70
78733;DHT22;68056;52.530;5.454;2024-02-28T12:14:04;10.20;70.40
78733;DHT22;68056;52.530;5.454;2024-02-28T12:16:32;10.20;70.50
78733;DHT22;68056;52.530;5.454;2024-02-28T12:18:57;10.20;70.50
78733;DHT22;68056;52.530;5.454;2024-02-28T12:21:23;10.30;70.40
78733;DHT22;68056;52.530;5.454;2024-02-28T12:23:49;10.30;70.30
78733;DHT22;68056;52.530;5.454;2024-02-28T12:26:18;10.40;70.40
78733;DHT22;68056;52.530;5.454;2024-02-28T12:28:45;10.40;70.20
78733;DHT22;68056;52.530;5.454;2024-02-28T12:31:10;10.50;70.20
78733;DHT22;68056;52.530;5.454;2024-02-28T12:33:37;10.50;70.30
78733;DHT22;68056;52.530;5.454;2024-02-28T12:36:03;10.70;70.10
78733;DHT22;68056;52.530;5.454;2024-02-28T12:38:30;10.70;69.90
78733;DHT22;68056;52.530;5.454;2024-02-28T12:40:56;10.60;69.70
78733;DHT22;68056;52.530;5.454;2024-02-28T12:43:22;10.50;69.90
78733;DHT22;68056;52.530;5.454;2024-02-28T12:45:47;10.40;70.00
78733;DHT22;68056;52.530;5.454;2024-02-28T12:48:13;10.30;70.20
78733;DHT22;68056;52.530;5.454;2024-02-28T12:50:38;10.30;70.30
78733;DHT22;68056;52.530;5.454;2024-02-28T12:53:05;10.30;70.30
78733;DHT22;68056;52.530;5.454;2024-02-28T12:55:31;10.30;70.30
78733;DHT22;68056;52.530;5.454;2024-02-28T12:57:56;10.30;70.30
78733;DHT22;68056;52.530;5.454;2024-02-28T13:00:22;10.20;70.30
78733;DHT22;68056;52.530;5.454;2024-02-28T13:02:47;10.20;70.20
78733;DHT22;68056;52.530;5.454;2024-02-28T13:05:13;10.20;70.30
78733;DHT22;68056;52.530;5.454;2024-02-28T13:07:39;10.20;70.30
78733;DHT22;68056;52.530;5.454;2024-02-28T13:10:06;10.20;70.30
78733;DHT22;68056;52.530;5.454;2024-02-28T13:12:31;10.30;70.30
78733;DHT22;68056;52.530;5.454;2024-02-28T13:14:58;10.40;70.10
78733;DHT22;68056;52.530;5.454;2024-02-28T13:17:24;10.40;70.10
78733;DHT22;68056;52.530;5.454;2024-02-28T13:19:50;10.40;70.00
78733;DHT22;68056;52.530;5.454;2024-02-28T13:22:16;10.40;70.10
78733;DHT22;68056;52.530;5.454;2024-02-28T13:24:42;10.40;70.00
78733;DHT22;68056;52.530;5.454;2024-02-28T13:27:07;10.40;70.00
78733;DHT22;68056;52.530;5.454;2024-02-28T13:29:34;10.40;69.90
78733;DHT22;68056;52.530;5.454;2024-02-28T13:32:00;10.40;69.80
78733;DHT22;68056;52.530;5.454;2024-02-28T13:34:27;10.30;69.70
78733;DHT22;68056;52.530;5.454;2024-02-28T13:36:53;10.20;69.80
78733;DHT22;68056;52.530;5.454;2024-02-28T13:39:18;10.10;69.90
78733;DHT22;68056;52.530;5.454;2024-02-28T13:41:44;10.10;70.00
78733;DHT22;68056;52.530;5.454;2024-02-28T13:44:10;10.10;70.20
78733;DHT22;68056;52.530;5.454;2024-02-28T13:46:35;10.20;70.20
78733;DHT22;68056;52.530;5.454;2024-02-28T13:49:02;10.20;70.00
78733;DHT22;68056;52.530;5.454;2024-02-28T13:51:29;10.20;69.90
78733;DHT22;68056;52.530;5.454;2024-02-28T13:53:55;10.20;69.90
78733;DHT22;68056;52.530;5.454;2024-02-28T13:56:20;10.20;69.90
78733;DHT22;68056;52.530;5.454;2024-02-28T13:58:46;10.20;69.90
78733;DHT22;68056;52.530;5.454;2024-02-28T14:01:12;10.20;69.90
78733;DHT22;68056;52.530;5.454;2024-02-28T14:03:38;10.10;69.80
78733;DHT22;68056;52.530;5.454;2024-02-28T14:06:04;10.00;69.80
78733;DHT22;68056;52.530;5.454;2024-02-28T14:08:30;10.00;69.90
78733;DHT22;68056;52.530;5.454;2024-02-28T14:10:55;9.90;70.00
78733;DHT22;68056;52.530;5.454;2024-02-28T14:13:21;9.90;70.20
78733;DHT22;68056;52.530;5.454;2024-02-28T14:15:47;9.80;70.20
78733;DHT22;68056;52.530;5.454;2024-02-28T14:18:12;9.80;70.20
78733;DHT22;68056;52.530;5.454;2024-02-28T14:20:38;9.80;70.30
78733;DHT22;68056;52.530;5.454;2024-02-28T14:23:04;9.80;70.20
78733;DHT22;68056;52.530;5.454;2024-02-28T14:25:30;9.80;70.20
78733;DHT22;68056;52.530;5.454;2024-02-28T14:27:56;9.90;70.30
78733;DHT22;68056;52.530;5.454;2024-02-28T14:30:22;9.90;70.20
78733;DHT22;68056;52.530;5.454;2024-02-28T14:32:48;9.80;70.20
78733;DHT22;68056;52.530;5.454;2024-02-28T14:35:14;9.80;70.30
78733;DHT22;68056;52.530;5.454;2024-02-28T14:37:40;9.80;70.30
78733;DHT22;68056;52.530;5.454;2024-02-28T14:40:07;9.70;70.30
78733;DHT22;68056;52.530;5.454;2024-02-28T14:42:38;9.70;70.30
78733;DHT22;68056;52.530;5.454;2024-02-28T14:45:08;9.70;70.30
78733;DHT22;68056;52.530;5.454;2024-02-28T14:47:36;9.60;70.40
78733;DHT22;68056;52.530;5.454;2024-02-28T14:50:05;9.60;70.40
78733;DHT22;68056;52.530;5.454;2024-02-28T14:52:31;9.50;70.40
78733;DHT22;68056;52.530;5.454;2024-02-28T14:54:57;9.50;70.50
78733;DHT22;68056;52.530;5.454;2024-02-28T14:57:23;9.50;70.50
78733;DHT22;68056;52.530;5.454;2024-02-28T14:59:48;9.50;70.50
78733;DHT22;68056;52.530;5.454;2024-02-28T15:02:14;9.50;70.50
78733;DHT22;68056;52.530;5.454;2024-02-28T15:04:40;9.50;70.50
78733;DHT22;68056;52.530;5.454;2024-02-28T15:07:06;9.50;70.50
78733;DHT22;68056;52.530;5.454;2024-02-28T15:09:32;9.50;70.50
78733;DHT22;68056;52.530;5.454;2024-02-28T15:11:59;9.50;70.50
78733;DHT22;68056;52.530;5.454;2024-02-28T15:14:25;9.60;70.50
78733;DHT22;68056;52.530;5.454;2024-02-28T15:16:53;9.60;70.40
78733;DHT22;68056;52.530;5.454;2024-02-28T15:19:22;9.50;70.40
78733;DHT22;68056;52.530;5.454;2024-02-28T15:21:47;9.50;70.50
78733;DHT22;68056;52.530;5.454;2024-02-28T15:24:13;9.50;70.60
78733;DHT22;68056;52.530;5.454;2024-02-28T15:26:39;9.50;70.60
78733;DHT22;68056;52.530;5.454;2024-02-28T15:29:05;9.40;70.60
78733;DHT22;68056;52.530;5.454;2024-02-28T15:31:31;9.40;70.60
78733;DHT22;68056;52.530;5.454;2024-02-28T15:33:56;9.40;70.60
78733;DHT22;68056;52.530;5.454;2024-02-28T15:36:22;9.40;70.70
78733;DHT22;68056;52.530;5.454;2024-02-28T15:38:47;9.40;70.70
78733;DHT22;68056;52.530;5.454;2024-02-28T15:41:13;9.40;70.80